createdAt,value
2019-01-19T00:02:09.924Z,8.88
2019-01-19T00:04:59.576Z,8.15
2019-01-19T00:07:42.660Z,9.23
2019-01-19T00:10:43.068Z,8.68
2019-01-19T00:13:26.473Z,8.05
2019-01-19T00:16:06.885Z,8.63
2019-01-19T00:19:01.172Z,8.43
2019-01-19T00:21:44.696Z,6.85
2019-01-19T00:24:54.768Z,8.30
2019-01-19T00:27:35.680Z,6.62
2019-01-19T00:30:19.628Z,6.78
2019-01-19T00:33:06.516Z,6.97
2019-01-19T00:35:51.792Z,6.65
2019-01-19T00:38:51.588Z,6.55
2019-01-19T00:41:42.552Z,6.90
2019-01-19T00:44:25.901Z,7.05
2019-01-19T00:47:50.713Z,6.12
2019-01-19T00:50:36.744Z,5.55
2019-01-19T00:53:35.085Z,6.10
2019-01-19T00:56:43.256Z,8.55
2019-01-19T00:59:17.960Z,6.00
2019-01-19T01:02:44.461Z,6.50
2019-01-19T01:05:25.536Z,5.22
2019-01-19T01:08:21.384Z,6.00
2019-01-19T01:10:59.802Z,7.55
2019-01-19T01:14:04.289Z,6.22
2019-01-19T01:16:47.749Z,6.42
2019-01-19T01:19:32.436Z,6.85
2019-01-19T01:22:16.059Z,7.20
2019-01-19T01:24:54.421Z,5.55
2019-01-19T01:27:47.881Z,6.42
2019-01-19T01:30:48.089Z,6.47
2019-01-19T01:33:28.573Z,7.37
2019-01-19T01:36:34.481Z,6.70
2019-01-19T01:39:39.727Z,5.80
2019-01-19T01:42:32.856Z,6.12
2019-01-19T01:45:25.396Z,6.35
2019-01-19T01:48:34.817Z,5.78
2019-01-19T01:51:21.544Z,5.35
2019-01-19T01:54:02.173Z,5.95
2019-01-19T01:56:34.225Z,6.35
2019-01-19T01:59:35.489Z,6.40
2019-01-19T02:02:15.043Z,6.35
2019-01-19T02:05:08.185Z,4.55
2019-01-19T02:07:45.773Z,5.47
2019-01-19T02:10:35.617Z,6.25
2019-01-19T02:13:37.370Z,5.65
2019-01-19T02:17:02.409Z,5.40
2019-01-19T02:20:02.934Z,5.67
2019-01-19T02:22:55.573Z,6.20
2019-01-19T02:25:49.886Z,4.85
2019-01-19T02:28:36.445Z,5.10
2019-01-19T02:31:36.225Z,6.10
2019-01-19T02:34:42.385Z,5.92
2019-01-19T02:37:19.954Z,5.40
2019-01-19T02:40:15.390Z,5.80
2019-01-19T02:43:14.213Z,6.70
2019-01-19T02:46:21.769Z,6.37
2019-01-19T02:49:27.838Z,6.28
2019-01-19T02:52:13.817Z,5.55
2019-01-19T02:55:09.514Z,5.75
2019-01-19T02:58:06.559Z,6.00
2019-01-19T03:00:58.901Z,5.90
2019-01-19T03:04:03.751Z,6.45
2019-01-19T03:06:47.417Z,5.85
2019-01-19T03:09:42.582Z,5.55
2019-01-19T03:12:56.513Z,5.62
2019-01-19T03:15:42.964Z,6.92
2019-01-19T03:18:49.021Z,5.47
2019-01-19T03:21:40.997Z,6.00
2019-01-19T03:24:27.717Z,6.05
2019-01-19T03:27:22.117Z,6.00
2019-01-19T03:30:17.013Z,5.90
2019-01-19T03:33:26.903Z,5.17
2019-01-19T03:36:05.201Z,5.47
2019-01-19T03:38:55.045Z,5.42
2019-01-19T03:41:39.617Z,5.28
2019-01-19T03:44:40.957Z,5.97
2019-01-19T03:47:31.990Z,4.78
2019-01-19T03:50:34.032Z,4.90
2019-01-19T03:53:17.917Z,5.00
2019-01-19T03:56:07.610Z,5.15
2019-01-19T03:58:51.993Z,5.75
2019-01-19T04:01:49.506Z,6.12
2019-01-19T04:04:44.101Z,5.25
2019-01-19T04:07:33.349Z,6.03
2019-01-19T04:10:28.365Z,5.75
2019-01-19T04:13:25.518Z,5.65
2019-01-19T04:16:21.153Z,5.37
2019-01-19T04:18:58.917Z,6.12
2019-01-19T04:21:45.408Z,6.55
2019-01-19T04:24:35.831Z,6.05
2019-01-19T04:27:06.904Z,5.85
2019-01-19T04:29:37.029Z,5.28
2019-01-19T04:32:09.225Z,5.40
2019-01-19T04:34:39.383Z,6.67
2019-01-19T04:37:14.614Z,6.25
2019-01-19T04:39:44.858Z,6.30
2019-01-19T04:42:19.169Z,5.55
2019-01-19T04:44:50.234Z,5.45
2019-01-19T04:47:21.357Z,5.55
2019-01-19T04:49:55.205Z,5.78
2019-01-19T04:52:31.133Z,5.70
2019-01-19T04:55:01.385Z,5.30
2019-01-19T04:57:34.756Z,4.95
2019-01-19T05:00:17.990Z,4.75
2019-01-19T05:02:48.081Z,5.12
2019-01-19T05:05:18.213Z,4.72
2019-01-19T05:07:57.237Z,5.37
2019-01-19T05:10:30.338Z,4.10
2019-01-19T05:13:00.441Z,5.80
2019-01-19T05:15:30.530Z,5.00
2019-01-19T05:18:06.885Z,6.05
2019-01-19T05:20:40.089Z,5.37
2019-01-19T05:23:11.401Z,5.30
2019-01-19T05:25:41.491Z,5.37
2019-01-19T05:28:20.553Z,5.37
2019-01-19T05:30:50.641Z,5.40
2019-01-19T05:33:21.666Z,5.65
2019-01-19T05:35:57.645Z,4.55
2019-01-19T05:38:30.375Z,5.12
2019-01-19T05:41:02.267Z,5.53
2019-01-19T05:43:32.358Z,4.78
2019-01-19T05:46:08.412Z,5.90
2019-01-19T05:48:39.493Z,5.35
2019-01-19T05:51:11.473Z,6.72
2019-01-19T05:53:41.569Z,6.37
2019-01-19T05:56:12.615Z,5.28
2019-01-19T05:58:46.037Z,5.85
2019-01-19T06:01:24.885Z,5.80
2019-01-19T06:03:55.169Z,4.53
2019-01-19T06:06:26.423Z,5.78
2019-01-19T06:09:07.529Z,5.65
2019-01-19T06:11:37.614Z,6.30
2019-01-19T06:14:07.710Z,5.25
2019-01-19T06:16:37.821Z,4.50
2019-01-19T06:19:08.279Z,5.12
2019-01-19T06:21:43.191Z,4.45
2019-01-19T06:24:19.342Z,5.35
2019-01-19T06:26:49.429Z,4.15
2019-01-19T06:29:23.569Z,5.03
2019-01-19T06:31:53.648Z,4.85
2019-01-19T06:34:24.811Z,4.67
2019-01-19T06:36:55.392Z,5.35
2019-01-19T06:39:27.443Z,5.92
2019-01-19T06:41:57.545Z,5.70
2019-01-19T06:44:28.597Z,4.37
2019-01-19T06:46:58.697Z,3.85
2019-01-19T06:49:28.773Z,4.87
2019-01-19T06:52:07.035Z,5.03
2019-01-19T06:54:40.361Z,4.95
2019-01-19T06:57:10.445Z,4.50
2019-01-19T06:59:42.517Z,4.78
2019-01-19T07:02:14.567Z,5.40
2019-01-19T07:04:44.674Z,4.95
2019-01-19T07:07:26.894Z,4.10
2019-01-19T07:09:57.946Z,4.85
2019-01-19T07:12:28.022Z,5.37
2019-01-19T07:14:58.106Z,4.75
2019-01-19T07:17:28.191Z,6.05
2019-01-19T07:19:59.225Z,4.37
2019-01-19T07:22:29.477Z,5.75
2019-01-19T07:24:59.571Z,4.75
2019-01-19T07:27:32.965Z,6.92
2019-01-19T07:30:13.157Z,4.20
2019-01-19T07:32:43.588Z,5.78
2019-01-19T07:35:14.903Z,6.15
2019-01-19T07:37:46.133Z,6.12
2019-01-19T07:40:20.542Z,6.10
2019-01-19T07:42:52.393Z,4.60
2019-01-19T07:45:25.060Z,5.72
2019-01-19T07:48:01.108Z,5.00
2019-01-19T07:50:36.946Z,5.15
2019-01-19T07:53:07.042Z,5.08
2019-01-19T07:55:40.986Z,4.47
2019-01-19T07:58:13.017Z,4.33
2019-01-19T08:00:43.180Z,3.90
2019-01-19T08:03:13.269Z,4.70
2019-01-19T08:05:43.365Z,4.50
2019-01-19T08:08:13.442Z,4.30
2019-01-19T08:10:43.549Z,4.70
2019-01-19T08:13:16.001Z,5.05
2019-01-19T08:15:46.077Z,4.37
2019-01-19T08:18:17.163Z,5.20
2019-01-19T08:20:51.240Z,4.92
2019-01-19T08:23:23.321Z,4.40
2019-01-19T08:25:53.405Z,4.17
2019-01-19T08:28:30.517Z,3.70
2019-01-19T08:31:04.615Z,4.62
2019-01-19T08:33:39.669Z,5.30
2019-01-19T08:36:16.161Z,4.40
2019-01-19T08:38:56.266Z,4.72
2019-01-19T08:41:28.321Z,3.70
2019-01-19T08:44:00.505Z,3.65
2019-01-19T08:46:33.575Z,3.85
2019-01-19T08:49:05.714Z,3.58
2019-01-19T08:51:35.801Z,3.87
2019-01-19T08:54:11.817Z,3.50
2019-01-19T08:56:42.878Z,3.00
2019-01-19T08:59:13.914Z,3.33
2019-01-19T09:01:44.973Z,3.62
2019-01-19T09:04:15.903Z,3.40
2019-01-19T09:06:46.925Z,6.25
2019-01-19T09:09:18.009Z,3.62
2019-01-19T09:11:49.113Z,3.60
2019-01-19T09:14:20.385Z,3.42
2019-01-19T09:16:50.479Z,3.17
2019-01-19T09:19:20.566Z,3.60
2019-01-19T09:21:51.669Z,3.60
2019-01-19T09:24:22.005Z,3.20
2019-01-19T09:26:52.239Z,2.98
2019-01-19T09:29:26.559Z,4.03
2019-01-19T09:31:58.593Z,3.40
2019-01-19T09:34:30.574Z,3.20
2019-01-19T09:37:06.973Z,3.45
2019-01-19T09:39:37.086Z,3.50
2019-01-19T09:42:07.297Z,3.65
2019-01-19T09:44:37.361Z,3.67
2019-01-19T09:47:07.458Z,3.00
2019-01-19T09:49:38.555Z,3.22
2019-01-19T09:52:08.693Z,3.00
2019-01-19T09:54:38.858Z,4.50
2019-01-19T09:57:09.891Z,3.60
2019-01-19T09:59:40.046Z,4.10
2019-01-19T10:02:10.385Z,2.72
2019-01-19T10:04:40.469Z,3.60
2019-01-19T10:07:10.602Z,3.27
2019-01-19T10:09:40.673Z,3.85
2019-01-19T10:12:11.202Z,3.05
2019-01-19T10:14:42.241Z,2.87
2019-01-19T10:17:12.420Z,3.50
2019-01-19T10:19:43.682Z,3.25
2019-01-19T10:22:14.821Z,3.20
2019-01-19T10:24:50.581Z,3.98
2019-01-19T10:27:23.346Z,3.05
2019-01-19T10:29:57.126Z,3.00
2019-01-19T10:32:27.206Z,2.72
2019-01-19T10:34:58.441Z,3.17
2019-01-19T10:37:30.449Z,3.33
2019-01-19T10:40:00.590Z,3.80
2019-01-19T10:42:31.553Z,2.95
2019-01-19T10:45:01.627Z,4.72
2019-01-19T10:47:32.746Z,2.80
2019-01-19T10:50:07.178Z,3.70
2019-01-19T10:52:41.177Z,3.50
2019-01-19T10:55:15.706Z,2.83
2019-01-19T10:57:48.270Z,4.03
2019-01-19T11:00:28.193Z,3.42
2019-01-19T11:03:00.571Z,3.70
2019-01-19T11:05:30.760Z,4.25
2019-01-19T11:08:03.987Z,3.62
2019-01-19T11:10:35.983Z,3.98
2019-01-19T11:13:06.086Z,4.05
2019-01-19T11:15:38.660Z,3.77
2019-01-19T11:18:08.809Z,3.92
2019-01-19T11:20:40.841Z,3.37
2019-01-19T11:23:10.913Z,3.52
2019-01-19T11:25:42.085Z,3.60
2019-01-19T11:28:12.394Z,3.20
2019-01-19T11:30:46.690Z,3.77
2019-01-19T11:33:18.190Z,3.75
2019-01-19T11:35:48.295Z,3.50
2019-01-19T11:38:20.265Z,3.25
2019-01-19T11:40:51.582Z,3.77
2019-01-19T11:43:28.505Z,3.12
2019-01-19T11:45:58.650Z,3.35
2019-01-19T11:48:30.274Z,3.83
2019-01-19T11:51:00.362Z,2.80
2019-01-19T11:53:31.527Z,3.60
2019-01-19T11:56:02.686Z,3.00
2019-01-19T11:58:33.747Z,3.30
2019-01-19T12:01:07.252Z,3.40
2019-01-19T12:03:43.470Z,3.08
2019-01-19T12:06:15.094Z,3.42
2019-01-19T12:08:45.236Z,3.90
2019-01-19T12:11:18.937Z,3.80
2019-01-19T12:13:48.998Z,3.75
2019-01-19T12:16:19.058Z,2.98
2019-01-19T12:18:50.126Z,3.30
2019-01-19T12:21:20.312Z,3.90
2019-01-19T12:23:51.379Z,3.47
2019-01-19T12:26:22.486Z,3.52
2019-01-19T12:28:52.886Z,3.70
2019-01-19T12:31:23.038Z,3.70
2019-01-19T12:33:55.090Z,3.42
2019-01-19T12:36:32.161Z,4.00
2019-01-19T12:39:09.249Z,3.33
2019-01-19T12:41:39.388Z,3.47
2019-01-19T12:44:19.745Z,3.10
2019-01-19T12:46:51.286Z,3.55
2019-01-19T12:49:22.342Z,3.00
2019-01-19T12:51:54.346Z,2.87
2019-01-19T12:54:26.469Z,2.83
2019-01-19T12:56:58.498Z,2.92
2019-01-19T12:59:28.714Z,2.95
2019-01-19T13:01:58.709Z,3.15
2019-01-19T13:04:28.907Z,2.80
2019-01-19T13:06:59.194Z,3.05
2019-01-19T13:09:29.438Z,3.45
2019-01-19T13:12:14.956Z,3.62
2019-01-19T13:14:56.434Z,2.70
2019-01-19T13:17:40.418Z,3.05
2019-01-19T13:20:36.686Z,3.08
2019-01-19T13:23:45.162Z,3.15
2019-01-19T13:26:21.870Z,3.15
2019-01-19T13:29:14.394Z,3.10
2019-01-19T13:32:25.669Z,3.25
2019-01-19T13:35:16.739Z,4.05
2019-01-19T13:38:03.981Z,3.22
2019-01-19T13:41:02.247Z,3.50
2019-01-19T13:43:46.594Z,3.15
2019-01-19T13:46:50.292Z,3.95
2019-01-19T13:49:45.938Z,4.00
2019-01-19T13:52:29.053Z,2.92
2019-01-19T13:55:18.852Z,3.80
2019-01-19T13:57:59.074Z,3.30
2019-01-19T14:01:03.695Z,3.50
2019-01-19T14:03:43.134Z,4.17
2019-01-19T14:06:23.322Z,4.20
2019-01-19T14:09:13.196Z,3.85
2019-01-19T14:12:12.094Z,3.47
2019-01-19T14:15:17.462Z,3.30
2019-01-19T14:17:56.511Z,3.80
2019-01-19T14:20:34.366Z,4.70
2019-01-19T14:23:39.594Z,4.20
2019-01-19T14:26:47.523Z,3.98
2019-01-19T14:29:51.815Z,4.12
2019-01-19T14:32:41.418Z,4.05
2019-01-19T14:35:34.050Z,4.45
2019-01-19T14:38:46.846Z,4.45
2019-01-19T14:41:40.863Z,3.80
2019-01-19T14:44:40.275Z,3.62
2019-01-19T14:47:35.938Z,3.10
2019-01-19T14:50:23.046Z,3.75
2019-01-19T14:53:09.691Z,4.03
2019-01-19T14:55:53.374Z,3.80
2019-01-19T14:58:40.042Z,3.87
2019-01-19T15:01:38.406Z,3.70
2019-01-19T15:04:44.809Z,4.70
2019-01-19T15:07:34.050Z,5.42
2019-01-19T15:10:31.374Z,5.67
2019-01-19T15:13:39.462Z,4.95
2019-01-19T15:16:40.510Z,4.97
2019-01-19T15:19:51.634Z,4.20
2019-01-19T15:22:47.070Z,4.65
2019-01-19T15:26:05.774Z,4.62
2019-01-19T15:28:54.206Z,4.53
2019-01-19T15:31:55.886Z,4.30
2019-01-19T15:34:57.608Z,5.40
2019-01-19T15:37:43.426Z,5.35
2019-01-19T15:40:30.982Z,6.83
2019-01-19T15:43:29.378Z,5.92
2019-01-19T15:46:35.528Z,6.90
2019-01-19T15:49:33.382Z,8.33
2019-01-19T15:52:17.819Z,8.25
2019-01-19T15:55:13.626Z,7.08
2019-01-19T15:57:58.072Z,7.40
2019-01-19T16:00:52.815Z,8.00
2019-01-19T16:03:39.254Z,8.30
2019-01-19T16:06:31.978Z,8.15
2019-01-19T16:09:27.607Z,8.23
2019-01-19T16:12:04.973Z,9.78
2019-01-19T16:15:03.682Z,8.45
2019-01-19T16:17:54.870Z,7.72
2019-01-19T16:20:50.786Z,7.83
2019-01-19T16:23:49.458Z,9.65
2019-01-19T16:26:44.843Z,10.53
2019-01-19T16:29:38.437Z,9.38
2019-01-19T16:32:30.779Z,11.28
2019-01-19T16:35:20.893Z,11.05
2019-01-19T16:37:58.526Z,10.20
2019-01-19T16:40:41.883Z,9.93
2019-01-19T16:43:19.678Z,8.88
2019-01-19T16:46:22.930Z,9.65
2019-01-19T16:49:09.586Z,8.28
2019-01-19T16:52:15.222Z,7.45
2019-01-19T16:55:04.606Z,7.58
2019-01-19T16:57:42.352Z,8.68
2019-01-19T17:01:36.187Z,10.58
2019-01-19T17:03:52.068Z,9.40
2019-01-19T17:06:47.218Z,12.53
2019-01-19T17:09:52.143Z,11.57
2019-01-19T17:12:44.936Z,10.93
2019-01-19T17:15:25.606Z,10.95
2019-01-19T17:18:22.523Z,10.85
2019-01-19T17:21:19.514Z,12.50
2019-01-19T17:24:21.318Z,11.05
2019-01-19T17:27:04.268Z,11.55
2019-01-19T17:29:52.075Z,12.25
2019-01-19T17:32:49.892Z,14.18
2019-01-19T17:35:57.658Z,13.18
2019-01-19T17:38:50.346Z,11.45
2019-01-19T17:41:47.302Z,9.88
2019-01-19T17:44:38.198Z,10.18
2019-01-19T17:47:18.589Z,10.03
2019-01-19T17:49:59.184Z,9.95
2019-01-19T17:52:33.891Z,11.05
2019-01-19T17:55:26.515Z,9.25
2019-01-19T17:58:18.983Z,10.82
2019-01-19T18:01:08.630Z,9.53
2019-01-19T18:03:46.038Z,9.55
2019-01-19T18:06:35.907Z,10.23
2019-01-19T18:09:28.761Z,9.40
2019-01-19T18:12:09.578Z,9.78
2019-01-19T18:15:17.376Z,9.90
2019-01-19T18:17:54.610Z,10.35
2019-01-19T18:20:47.188Z,8.85
2019-01-19T18:23:38.133Z,8.70
2019-01-19T18:26:32.306Z,8.58
2019-01-19T18:29:13.034Z,9.20
2019-01-19T18:32:01.019Z,7.78
2019-01-19T18:34:38.131Z,8.20
2019-01-19T18:37:36.107Z,10.82
2019-01-19T18:40:34.415Z,9.23
2019-01-19T18:43:42.119Z,9.25
2019-01-19T18:46:19.600Z,10.08
2019-01-19T18:49:06.160Z,10.18
2019-01-19T18:52:00.645Z,10.28
2019-01-19T18:54:41.300Z,10.13
2019-01-19T18:57:33.883Z,11.38
2019-01-19T19:00:08.667Z,11.63
2019-01-19T19:03:15.719Z,10.53
2019-01-19T19:06:04.967Z,10.68
2019-01-19T19:09:00.495Z,11.75
2019-01-19T19:11:46.711Z,10.85
2019-01-19T19:14:34.182Z,9.88
2019-01-19T19:17:34.285Z,10.98
2019-01-19T19:20:17.915Z,9.33
2019-01-19T19:23:13.287Z,11.45
2019-01-19T19:26:19.884Z,9.33
2019-01-19T19:28:57.802Z,9.10
2019-01-19T19:31:50.683Z,9.10
2019-01-19T19:34:40.287Z,10.23
2019-01-19T19:37:21.584Z,9.38
2019-01-19T19:39:58.295Z,9.10
2019-01-19T19:42:55.359Z,11.70
2019-01-19T19:45:42.727Z,10.72
2019-01-19T19:48:31.951Z,10.43
2019-01-19T19:51:27.264Z,10.20
2019-01-19T19:53:57.435Z,10.65
2019-01-19T19:56:26.804Z,10.53
2019-01-19T19:58:56.903Z,8.28
2019-01-19T20:01:26.999Z,10.60
2019-01-19T20:03:57.106Z,9.55
2019-01-19T20:06:27.211Z,9.93
2019-01-19T20:08:58.244Z,10.25
2019-01-19T20:11:28.327Z,9.95
2019-01-19T20:14:00.179Z,8.43
2019-01-19T20:16:30.275Z,10.08
2019-01-19T20:19:00.959Z,9.30
2019-01-19T20:21:31.051Z,10.53
2019-01-19T20:24:01.135Z,10.93
2019-01-19T20:26:31.255Z,10.40
2019-01-19T20:29:01.359Z,10.95
2019-01-19T20:31:31.467Z,10.63
2019-01-19T20:34:01.631Z,9.40
2019-01-19T20:36:31.719Z,9.65
2019-01-19T20:39:01.843Z,9.15
2019-01-19T20:41:31.920Z,9.63
2019-01-19T20:44:02.975Z,11.48
2019-01-19T20:46:35.959Z,10.43
2019-01-19T20:49:06.039Z,10.00
2019-01-19T20:51:37.116Z,8.80
2019-01-19T20:54:07.203Z,11.15
2019-01-19T20:56:38.293Z,10.05
2019-01-19T20:59:08.408Z,10.68
2019-01-19T21:01:38.479Z,9.68
2019-01-19T21:04:15.606Z,11.15
2019-01-19T21:06:41.239Z,9.68
2019-01-19T21:09:11.476Z,10.10
2019-01-19T21:11:41.636Z,10.35
2019-01-19T21:14:11.725Z,9.93
2019-01-19T21:16:42.821Z,11.38
2019-01-19T21:19:12.935Z,10.25
2019-01-19T21:21:44.947Z,9.88
2019-01-19T21:24:16.063Z,9.08
2019-01-19T21:26:46.167Z,8.63
2019-01-19T21:29:16.287Z,10.18
2019-01-19T21:31:46.405Z,9.45
2019-01-19T21:34:16.475Z,9.10
2019-01-19T21:36:46.563Z,9.88
2019-01-19T21:39:16.659Z,9.13
2019-01-19T21:41:46.765Z,8.75
2019-01-19T21:44:16.835Z,10.40
2019-01-19T21:46:47.819Z,10.25
2019-01-19T21:49:18.809Z,8.88
2019-01-19T21:51:49.883Z,8.90
2019-01-19T21:54:19.967Z,9.20
2019-01-19T21:56:50.663Z,9.38
2019-01-19T21:59:20.771Z,10.05
2019-01-19T22:01:50.855Z,8.80
2019-01-19T22:04:20.947Z,10.45
2019-01-19T22:06:51.045Z,9.23
2019-01-19T22:09:21.171Z,11.97
2019-01-19T22:11:51.259Z,9.13
2019-01-19T22:14:21.359Z,11.12
2019-01-19T22:16:51.463Z,10.75
2019-01-19T22:19:21.543Z,8.90
2019-01-19T22:21:51.643Z,11.28
2019-01-19T22:24:22.663Z,11.05
2019-01-19T22:26:53.539Z,9.70
2019-01-19T22:29:24.625Z,10.00
2019-01-19T22:31:54.717Z,8.90
2019-01-19T22:34:24.812Z,10.00
2019-01-19T22:36:55.873Z,11.70
2019-01-19T22:39:25.951Z,9.93
2019-01-19T22:41:56.057Z,9.85
2019-01-19T22:44:26.203Z,9.70
2019-01-19T22:46:57.221Z,10.13
2019-01-19T22:49:27.325Z,9.95
2019-01-19T22:51:57.427Z,10.10
2019-01-19T22:54:27.519Z,8.78
2019-01-19T22:56:59.645Z,9.85
2019-01-19T22:59:30.681Z,9.50
2019-01-19T23:02:01.844Z,9.15
2019-01-19T23:04:31.899Z,9.45
2019-01-19T23:07:02.056Z,10.75
2019-01-19T23:09:32.189Z,9.58
2019-01-19T23:12:02.312Z,10.53
2019-01-19T23:14:32.987Z,9.98
2019-01-19T23:17:04.355Z,9.55
2019-01-19T23:19:34.475Z,10.58
2019-01-19T23:22:04.623Z,9.83
2019-01-19T23:24:34.791Z,10.53
2019-01-19T23:27:05.532Z,10.38
2019-01-19T23:29:36.611Z,12.65
2019-01-19T23:32:07.699Z,9.63
2019-01-19T23:34:39.227Z,10.50
2019-01-19T23:37:09.324Z,11.28
2019-01-19T23:39:39.427Z,9.83
2019-01-19T23:42:09.519Z,10.08
2019-01-19T23:44:41.651Z,10.68
2019-01-19T23:47:11.775Z,11.15
2019-01-19T23:49:42.015Z,10.13
2019-01-19T23:52:12.135Z,10.38
2019-01-19T23:54:43.211Z,9.60
2019-01-19T23:57:14.263Z,9.50
2019-01-19T23:59:44.539Z,10.35
